Time;durP1;ratioP1;P1;durP2;ratioP2;P2;SDS_P1;SDS_P2;PMS_P1;PMS_P2;Temp;Humidity;BMP_temperature;BMP_pressure;BME280_temperature;BME280_humidity;BME280_pressure;Samples;Min_cycle;Max_cycle;Signal;HPM_P1;HPM_P2
2024/01/15 00:02:15;;;;;;;14.55;2.58;;;3.20;88.20;;;;;;4999147;28;20115;-79
2024/01/15 00:04:41;;;;;;;12.05;2.25;;;3.20;88.00;;;;;;5031897;28;20045;-79
2024/01/15 00:07:08;;;;;;;12.63;2.67;;;3.10;87.90;;;;;;5015422;28;20379;-80
2024/01/15 00:09:34;;;;;;;12.65;2.60;;;3.20;87.70;;;;;;5032017;28;20049;-78
2024/01/15 00:12:00;;;;;;;14.23;2.10;;;3.30;87.90;;;;;;5015535;28;20119;-79
2024/01/15 00:14:26;;;;;;;17.13;2.33;;;3.30;87.60;;;;;;5015619;28;20037;-81
2024/01/15 00:16:52;;;;;;;11.00;2.63;;;3.40;87.60;;;;;;5015400;28;20528;-79
2024/01/15 00:19:21;;;;;;;11.00;2.15;;;3.50;87.50;;;;;;5031887;28;20075;-79
2024/01/15 00:21:47;;;;;;;13.57;3.72;;;3.50;87.60;;;;;;5015626;28;20389;-78
2024/01/15 00:24:13;;;;;;;15.98;2.70;;;3.50;87.70;;;;;;5014918;28;20044;-79
2024/01/15 00:26:39;;;;;;;15.52;2.83;;;3.50;87.60;;;;;;5015522;28;20034;-80
2024/01/15 00:29:07;;;;;;;10.00;2.13;;;3.50;87.80;;;;;;5015564;28;20494;-80
2024/01/15 00:31:33;;;;;;;14.15;2.15;;;3.60;88.10;;;;;;5032042;28;20098;-79
2024/01/15 00:33:58;;;;;;;15.27;2.65;;;3.60;88.00;;;;;;5015229;28;20553;-79
2024/01/15 00:36:24;;;;;;;21.88;3.65;;;3.60;88.20;;;;;;5034862;28;20037;-79
2024/01/15 00:38:50;;;;;;;12.88;2.70;;;3.60;88.10;;;;;;5002651;28;20080;-79
2024/01/15 00:41:15;;;;;;;19.08;2.70;;;3.60;88.20;;;;;;5002623;28;20041;-80
2024/01/15 00:43:41;;;;;;;16.48;4.20;;;3.60;88.20;;;;;;5018714;28;20045;-79
2024/01/15 00:46:08;;;;;;;14.63;3.08;;;3.70;88.00;;;;;;5018825;28;20048;-81
2024/01/15 00:48:33;;;;;;;12.48;2.35;;;3.70;88.20;;;;;;5018854;28;20126;-79
2024/01/15 00:50:59;;;;;;;3.50;0.80;;;3.80;88.40;;;;;;5035222;28;20080;-78
2024/01/15 00:53:25;;;;;;;3.58;0.85;;;3.60;88.60;;;;;;5018475;28;20041;-80
2024/01/15 00:55:51;;;;;;;6.72;1.02;;;3.30;89.00;;;;;;5035261;28;20042;-79
2024/01/15 00:58:17;;;;;;;6.53;1.48;;;3.00;89.60;;;;;;5018365;28;20493;-80
2024/01/15 01:00:42;;;;;;;7.30;1.77;;;2.90;90.40;;;;;;5018889;28;20050;-79
2024/01/15 01:03:08;;;;;;;9.45;1.50;;;2.80;90.90;;;;;;5018452;28;20497;-79
2024/01/15 01:05:34;;;;;;;8.27;1.42;;;2.80;91.30;;;;;;5034980;28;20037;-78
2024/01/15 01:08:00;;;;;;;5.03;0.93;;;2.70;91.60;;;;;;5034965;28;20042;-79
2024/01/15 01:10:26;;;;;;;2.90;1.30;;;2.60;91.80;;;;;;5018450;28;20084;-79
2024/01/15 01:12:52;;;;;;;10.60;1.55;;;2.60;92.30;;;;;;5034773;28;20045;-80
2024/01/15 01:15:18;;;;;;;11.85;2.72;;;2.60;92.50;;;;;;5018600;28;20144;-79
2024/01/15 01:17:44;;;;;;;11.85;2.08;;;2.70;92.40;;;;;;5034681;28;20107;-79
2024/01/15 01:20:10;;;;;;;11.35;2.15;;;2.60;92.40;;;;;;5034952;28;20132;-79
2024/01/15 01:22:36;;;;;;;13.40;2.58;;;2.70;92.20;;;;;;5018363;28;20542;-81
2024/01/15 01:25:02;;;;;;;9.70;1.70;;;2.80;92.10;;;;;;5034624;28;20124;-82
2024/01/15 01:27:28;;;;;;;12.55;2.15;;;2.90;92.00;;;;;;5018405;28;20083;-79
2024/01/15 01:29:54;;;;;;;17.17;2.47;;;2.90;91.90;;;;;;5018079;28;20069;-78
2024/01/15 01:32:19;;;;;;;13.45;2.10;;;3.00;91.70;;;;;;5017913;28;20569;-78
2024/01/15 01:34:45;;;;;;;14.60;2.95;;;3.00;91.80;;;;;;5034703;28;20053;-77
2024/01/15 01:37:14;;;;;;;16.23;2.85;;;3.00;91.80;;;;;;5034378;28;20096;-78
2024/01/15 01:39:41;;;;;;;20.13;3.10;;;3.00;91.90;;;;;;5017851;28;20041;-79
2024/01/15 01:42:07;;;;;;;10.68;3.13;;;3.00;92.00;;;;;;5034202;28;20045;-80
2024/01/15 01:44:32;;;;;;;23.52;4.00;;;3.00;91.90;;;;;;5034249;28;20371;-81
2024/01/15 01:47:02;;;;;;;8.98;2.33;;;3.00;92.10;;;;;;5033538;28;20485;-80
2024/01/15 01:49:28;;;;;;;14.32;2.97;;;2.90;92.00;;;;;;5017862;28;20038;-80
2024/01/15 01:51:59;;;;;;;11.38;3.15;;;3.00;91.80;;;;;;5017620;28;20048;-80
2024/01/15 01:54:28;;;;;;;14.15;2.72;;;3.00;91.60;;;;;;5017588;28;20048;-80
2024/01/15 01:56:55;;;;;;;20.83;3.60;;;3.00;91.50;;;;;;5034309;28;20417;-80
2024/01/15 01:59:23;;;;;;;21.33;3.15;;;3.00;91.50;;;;;;5017163;28;20068;-79
2024/01/15 02:01:49;;;;;;;15.05;2.83;;;2.90;91.60;;;;;;5034069;28;20402;-79
2024/01/15 02:04:15;;;;;;;16.88;2.67;;;2.90;91.60;;;;;;5017136;28;20042;-78
2024/01/15 02:06:41;;;;;;;13.43;3.17;;;3.00;91.60;;;;;;5001200;28;20559;-80
2024/01/15 02:09:09;;;;;;;17.70;3.55;;;3.00;91.50;;;;;;5017251;28;20042;-81
2024/01/15 02:11:35;;;;;;;8.23;1.98;;;3.00;91.60;;;;;;5033972;28;20081;-80
2024/01/15 02:14:01;;;;;;;14.48;4.07;;;3.10;91.60;;;;;;5033593;28;20042;-79
2024/01/15 02:16:26;;;;;;;15.40;2.30;;;3.10;91.50;;;;;;5033946;28;20389;-79
2024/01/15 02:18:52;;;;;;;17.20;3.50;;;3.10;91.60;;;;;;5033625;28;20128;-80
2024/01/15 02:21:18;;;;;;;13.18;2.22;;;3.10;91.40;;;;;;5017039;28;20119;-80
2024/01/15 02:23:43;;;;;;;9.25;3.15;;;3.10;91.60;;;;;;5033354;28;20052;-79
2024/01/15 02:26:09;;;;;;;18.90;3.28;;;3.10;91.70;;;;;;5033831;28;20045;-79
2024/01/15 02:28:35;;;;;;;9.68;2.20;;;3.10;91.60;;;;;;5016990;28;20033;-79
2024/01/15 02:31:00;;;;;;;6.35;1.92;;;3.00;91.80;;;;;;5017258;28;20037;-78
2024/01/15 02:33:26;;;;;;;13.32;3.40;;;3.00;91.70;;;;;;5017091;28;20090;-80
2024/01/15 02:35:52;;;;;;;11.25;3.17;;;3.00;91.30;;;;;;5017024;28;20041;-78
2024/01/15 02:38:18;;;;;;;10.65;2.45;;;3.00;91.40;;;;;;5033187;28;20053;-79
2024/01/15 02:40:44;;;;;;;17.60;3.35;;;2.90;91.50;;;;;;5016664;28;20052;-80
2024/01/15 02:43:10;;;;;;;17.52;3.28;;;3.00;91.60;;;;;;5033025;28;20057;-79
2024/01/15 02:45:36;;;;;;;10.50;2.58;;;3.10;91.50;;;;;;5018013;28;20033;-79
2024/01/15 02:48:02;;;;;;;9.52;1.85;;;3.10;91.00;;;;;;5033377;28;20547;-78
2024/01/15 02:50:27;;;;;;;7.57;1.00;;;3.10;90.70;;;;;;5033005;28;20044;-78
2024/01/15 02:52:53;;;;;;;7.47;1.35;;;3.00;90.40;;;;;;5033096;28;20060;-78
2024/01/15 02:55:19;;;;;;;4.22;0.70;;;2.90;90.20;;;;;;5016499;28;20042;-80
2024/01/15 02:57:45;;;;;;;6.28;1.60;;;2.80;90.10;;;;;;4999845;28;20103;-79
2024/01/15 03:00:14;;;;;;;7.13;1.33;;;2.80;90.20;;;;;;5032057;28;20092;-79
2024/01/15 03:02:40;;;;;;;13.77;2.17;;;2.80;90.10;;;;;;5032526;28;20041;-78
2024/01/15 03:05:07;;;;;;;9.25;1.20;;;2.90;90.00;;;;;;5032708;28;20042;-80
2024/01/15 03:07:33;;;;;;;12.00;2.50;;;2.90;90.20;;;;;;5033060;28;20132;-80
2024/01/15 03:09:59;;;;;;;18.67;2.78;;;2.90;90.10;;;;;;5032885;28;20080;-79
2024/01/15 03:12:25;;;;;;;14.13;2.05;;;3.00;90.20;;;;;;5032603;28;20478;-79
2024/01/15 03:14:51;;;;;;;11.10;2.63;;;3.10;90.30;;;;;;5032828;28;20049;-80
2024/01/15 03:17:16;;;;;;;16.92;2.55;;;3.00;90.30;;;;;;5032368;28;20490;-79
2024/01/15 03:19:42;;;;;;;8.57;2.15;;;3.00;90.30;;;;;;5015910;28;20077;-81
2024/01/15 03:22:08;;;;;;;12.93;2.60;;;3.00;90.40;;;;;;5032338;28;20128;-80
2024/01/15 03:24:35;;;;;;;13.05;2.42;;;3.00;90.40;;;;;;5015788;28;20498;-79
2024/01/15 03:27:01;;;;;;;9.68;2.08;;;3.10;90.00;;;;;;5032577;28;20034;-78
2024/01/15 03:29:27;;;;;;;9.07;2.25;;;3.00;90.00;;;;;;5015467;28;20378;-80
2024/01/15 03:31:52;;;;;;;11.63;2.35;;;3.00;89.90;;;;;;5032091;28;20029;-79
2024/01/15 03:34:18;;;;;;;8.32;1.55;;;2.90;89.80;;;;;;5031994;28;20401;-79
2024/01/15 03:36:44;;;;;;;11.30;1.50;;;2.90;89.80;;;;;;5032289;28;20059;-79
2024/01/15 03:39:10;;;;;;;10.27;1.73;;;2.90;89.70;;;;;;5015806;28;20049;-79
2024/01/15 03:41:35;;;;;;;12.98;2.55;;;2.90;89.30;;;;;;5032191;28;20456;-79
2024/01/15 03:44:01;;;;;;;8.23;1.85;;;3.00;89.30;;;;;;5031968;28;20048;-79
2024/01/15 03:46:27;;;;;;;9.60;2.15;;;2.90;89.40;;;;;;5031955;28;20034;-81
2024/01/15 03:48:53;;;;;;;6.47;1.48;;;2.90;89.50;;;;;;5015819;28;20042;-80
2024/01/15 03:51:19;;;;;;;5.38;1.30;;;2.90;89.60;;;;;;5015474;28;20383;-81
2024/01/15 03:53:45;;;;;;;4.82;0.90;;;2.80;89.80;;;;;;5015477;28;20045;-79
2024/01/15 03:56:11;;;;;;;6.32;0.85;;;2.80;89.90;;;;;;5015400;28;20555;-79
2024/01/15 03:58:36;;;;;;;5.20;0.70;;;2.80;89.80;;;;;;5015126;28;20060;-79
2024/01/15 04:01:02;;;;;;;5.20;0.80;;;2.70;89.80;;;;;;5015267;28;20045;-81
2024/01/15 04:03:28;;;;;;;6.45;1.00;;;2.70;89.90;;;;;;5031492;28;20056;-79
2024/01/15 04:05:54;;;;;;;4.80;1.08;;;2.70;89.70;;;;;;5015449;28;20041;-80
2024/01/15 04:08:19;;;;;;;3.38;1.30;;;2.70;89.50;;;;;;5032724;28;20040;-80
2024/01/15 04:10:45;;;;;;;6.88;0.90;;;2.60;89.30;;;;;;5017646;28;20072;-80
2024/01/15 04:13:11;;;;;;;7.25;1.20;;;2.60;89.20;;;;;;5035727;28;20126;-80
2024/01/15 04:15:37;;;;;;;5.75;1.38;;;2.60;89.10;;;;;;5035711;28;20041;-80
2024/01/15 04:18:03;;;;;;;6.70;1.50;;;2.70;88.90;;;;;;5036155;28;20374;-80
2024/01/15 04:20:29;;;;;;;6.82;1.10;;;2.60;89.10;;;;;;5003011;28;20102;-80
2024/01/15 04:22:55;;;;;;;13.35;1.48;;;2.60;89.20;;;;;;5035590;28;20045;-80
2024/01/15 04:25:21;;;;;;;11.70;1.85;;;2.70;89.30;;;;;;5035695;28;20037;-79
2024/01/15 04:27:46;;;;;;;10.13;1.55;;;2.60;89.50;;;;;;5003183;28;20034;-80
2024/01/15 04:30:12;;;;;;;9.68;1.80;;;2.60;89.80;;;;;;5018980;28;20505;-79
2024/01/15 04:32:38;;;;;;;7.78;1.60;;;2.50;89.70;;;;;;5018857;28;20095;-80
2024/01/15 04:35:04;;;;;;;15.48;2.92;;;2.50;90.10;;;;;;5035503;28;20033;-80
2024/01/15 04:37:30;;;;;;;11.15;2.42;;;2.50;90.30;;;;;;5019361;28;20038;-81
2024/01/15 04:39:57;;;;;;;10.43;2.30;;;2.50;90.40;;;;;;5035522;28;20489;-81
2024/01/15 04:42:23;;;;;;;6.85;1.67;;;2.40;90.60;;;;;;5035659;28;20096;-81
2024/01/15 04:44:49;;;;;;;8.98;1.83;;;2.40;90.70;;;;;;5035296;28;20073;-82
2024/01/15 04:47:14;;;;;;;8.60;2.30;;;2.40;91.00;;;;;;5018859;28;20037;-81
2024/01/15 04:49:40;;;;;;;15.85;2.80;;;2.30;91.20;;;;;;5035539;28;20077;-81
2024/01/15 04:52:06;;;;;;;15.90;2.70;;;2.30;91.10;;;;;;5035456;28;20091;-81
2024/01/15 04:54:32;;;;;;;14.57;2.65;;;2.20;91.20;;;;;;5018669;28;20512;-81
2024/01/15 04:56:57;;;;;;;11.27;2.28;;;2.30;91.60;;;;;;5035330;28;20049;-82
2024/01/15 04:59:23;;;;;;;13.57;2.63;;;2.30;91.50;;;;;;5002168;28;20057;-80
2024/01/15 05:01:49;;;;;;;14.32;2.80;;;2.30;91.60;;;;;;5035087;28;20056;-80
2024/01/15 05:04:15;;;;;;;15.63;2.88;;;2.20;91.70;;;;;;5018391;28;20038;-81
2024/01/15 05:06:41;;;;;;;13.77;3.15;;;2.20;91.70;;;;;;5018445;28;20037;-80
2024/01/15 05:09:07;;;;;;;13.85;3.13;;;2.20;91.80;;;;;;5018571;28;20049;-80
2024/01/15 05:11:32;;;;;;;13.35;2.70;;;2.10;91.90;;;;;;5034879;28;20037;-81
2024/01/15 05:13:58;;;;;;;10.50;2.72;;;2.10;92.00;;;;;;5018264;28;20052;-79
2024/01/15 05:16:24;;;;;;;15.65;2.88;;;2.10;92.10;;;;;;5034788;28;20038;-80
2024/01/15 05:18:50;;;;;;;23.88;3.50;;;2.00;92.10;;;;;;5035053;28;20041;-81
2024/01/15 05:21:16;;;;;;;17.50;3.05;;;2.00;92.30;;;;;;5033823;28;20045;-81
2024/01/15 05:23:41;;;;;;;10.85;2.72;;;2.00;92.40;;;;;;5034410;28;20095;-80
2024/01/15 05:26:08;;;;;;;27.50;4.50;;;2.00;92.60;;;;;;5018194;28;20076;-82
2024/01/15 05:28:35;;;;;;;20.95;3.95;;;2.00;92.50;;;;;;5018058;28;20071;-81
2024/01/15 05:31:01;;;;;;;27.40;5.05;;;2.00;92.80;;;;;;5034758;28;20124;-80
2024/01/15 05:33:26;;;;;;;21.58;3.78;;;2.10;92.60;;;;;;5017896;28;20140;-80
2024/01/15 05:35:53;;;;;;;16.48;3.90;;;2.10;92.70;;;;;;5017897;28;20045;-80
2024/01/15 05:38:19;;;;;;;22.50;4.40;;;2.10;92.60;;;;;;5017960;28;20049;-79
2024/01/15 05:40:45;;;;;;;18.40;4.47;;;2.10;92.60;;;;;;5017856;28;20098;-81
2024/01/15 05:43:10;;;;;;;20.48;3.83;;;2.10;92.50;;;;;;5017618;28;20052;-81
2024/01/15 05:45:38;;;;;;;13.30;2.97;;;2.10;92.40;;;;;;5034503;28;20037;-81
2024/01/15 05:48:04;;;;;;;16.15;2.92;;;2.20;92.40;;;;;;5034262;28;20048;-81
2024/01/15 05:50:30;;;;;;;12.68;2.85;;;2.10;92.20;;;;;;5034166;28;20037;-81
2024/01/15 05:52:55;;;;;;;12.23;2.40;;;2.20;92.30;;;;;;5034087;28;20049;-80
2024/01/15 05:55:21;;;;;;;21.05;3.38;;;2.10;92.20;;;;;;5001366;28;20128;-80
2024/01/15 05:57:47;;;;;;;11.85;2.50;;;2.20;92.10;;;;;;5017610;28;20077;-83
2024/01/15 06:00:13;;;;;;;12.75;3.00;;;2.20;92.00;;;;;;5017448;28;20207;-82
2024/01/15 06:02:39;;;;;;;14.95;2.60;;;2.30;91.40;;;;;;5017581;28;20052;-81
2024/01/15 06:05:06;;;;;;;13.43;2.88;;;2.40;91.20;;;;;;5033923;28;20387;-82
2024/01/15 06:07:33;;;;;;;15.68;2.70;;;2.50;90.80;;;;;;5033824;28;20505;-81
2024/01/15 06:09:59;;;;;;;12.20;1.80;;;2.60;90.00;;;;;;5033877;28;20128;-80
2024/01/15 06:12:25;;;;;;;6.00;1.77;;;2.70;89.90;;;;;;5017167;28;20124;-80
2024/01/15 06:14:50;;;;;;;5.85;1.63;;;2.70;89.60;;;;;;5033732;28;20128;-80
2024/01/15 06:17:16;;;;;;;10.10;1.63;;;2.70;89.40;;;;;;5017411;28;20045;-80
2024/01/15 06:19:41;;;;;;;4.28;1.00;;;2.70;88.90;;;;;;5017815;28;20124;-81
2024/01/15 06:22:07;;;;;;;6.18;1.38;;;2.70;88.00;;;;;;5001770;28;20462;-80
2024/01/15 06:24:33;;;;;;;5.57;1.40;;;2.60;88.10;;;;;;5033390;28;20509;-81
2024/01/15 06:26:59;;;;;;;7.78;1.45;;;2.50;88.20;;;;;;5033522;28;20048;-80
2024/01/15 06:29:27;;;;;;;12.98;1.85;;;2.40;88.30;;;;;;5017018;28;20037;-82
2024/01/15 06:31:53;;;;;;;6.60;1.20;;;2.20;88.70;;;;;;5033613;28;20049;-81
2024/01/15 06:34:19;;;;;;;8.20;1.92;;;2.20;88.60;;;;;;5016511;28;20041;-82
2024/01/15 06:36:44;;;;;;;6.60;1.17;;;2.10;88.90;;;;;;5016782;28;20091;-79
2024/01/15 06:39:10;;;;;;;11.80;1.65;;;2.10;89.10;;;;;;5016585;28;20045;-81
2024/01/15 06:41:43;;;;;;;7.63;1.48;;;2.00;89.10;;;;;;5016721;28;20037;-81
2024/01/15 06:44:12;;;;;;;7.72;1.80;;;2.00;89.30;;;;;;5033055;28;20099;-79
2024/01/15 06:46:45;;;;;;;9.95;1.63;;;1.90;89.20;;;;;;5033095;28;20041;-81
2024/01/15 06:49:12;;;;;;;11.93;1.40;;;1.80;89.40;;;;;;5033099;28;20034;-80
2024/01/15 06:51:38;;;;;;;11.07;2.25;;;1.80;89.60;;;;;;5032930;28;20095;-81
2024/01/15 06:54:04;;;;;;;6.57;1.25;;;1.80;89.60;;;;;;5016682;28;20080;-81
2024/01/15 06:56:30;;;;;;;8.75;2.53;;;1.80;89.80;;;;;;5032948;28;20409;-81
2024/01/15 06:58:55;;;;;;;11.45;2.25;;;1.90;89.90;;;;;;5032460;28;20057;-81
2024/01/15 07:01:21;;;;;;;10.05;1.92;;;1.80;89.80;;;;;;5016468;28;20047;-82
2024/01/15 07:03:47;;;;;;;14.55;2.08;;;1.80;89.90;;;;;;5017408;28;20047;-81
2024/01/15 07:06:13;;;;;;;11.70;2.20;;;1.90;90.00;;;;;;5016458;28;20037;-81
2024/01/15 07:08:39;;;;;;;13.65;2.65;;;1.90;90.10;;;;;;4999989;28;20030;-82
2024/01/15 07:11:05;;;;;;;18.45;2.30;;;2.10;90.00;;;;;;5016293;28;20124;-82
2024/01/15 07:13:32;;;;;;;10.63;2.45;;;2.10;89.70;;;;;;5032679;28;20045;-82
2024/01/15 07:15:57;;;;;;;8.57;2.20;;;2.30;89.50;;;;;;5033159;28;20095;-83
2024/01/15 07:18:23;;;;;;;11.70;2.40;;;2.20;89.50;;;;;;5016685;28;20482;-79
2024/01/15 07:20:49;;;;;;;15.77;2.83;;;2.30;89.50;;;;;;5016964;28;20072;-81
2024/01/15 07:23:15;;;;;;;20.05;2.72;;;2.30;89.20;;;;;;5032534;28;20045;-81
2024/01/15 07:25:41;;;;;;;13.18;1.75;;;2.40;88.80;;;;;;5032414;28;20040;-81
2024/01/15 07:28:06;;;;;;;7.82;1.42;;;2.50;88.60;;;;;;5015950;28;20409;-81
2024/01/15 07:30:32;;;;;;;10.88;2.72;;;2.60;88.40;;;;;;5015945;28;20110;-80
2024/01/15 07:32:58;;;;;;;12.35;2.42;;;2.60;88.30;;;;;;5016056;28;20145;-82
2024/01/15 07:35:24;;;;;;;7.03;1.63;;;2.60;88.60;;;;;;4999192;28;20124;-79
2024/01/15 07:37:49;;;;;;;17.27;3.17;;;2.60;88.70;;;;;;5016287;28;20385;-81
2024/01/15 07:40:16;;;;;;;8.40;1.45;;;2.60;88.70;;;;;;5015753;28;20037;-81
2024/01/15 07:42:42;;;;;;;11.57;1.73;;;2.60;89.00;;;;;;5019455;28;20045;-82
2024/01/15 07:45:09;;;;;;;10.05;2.58;;;2.60;89.00;;;;;;5007417;28;20098;-82
2024/01/15 07:47:34;;;;;;;5.97;2.00;;;2.50;88.90;;;;;;5030143;28;20076;-81
2024/01/15 07:50:00;;;;;;;5.13;1.02;;;2.40;89.10;;;;;;5008524;28;20142;-80
2024/01/15 07:52:26;;;;;;;4.47;1.55;;;2.30;88.70;;;;;;5012681;28;20048;-81
2024/01/15 07:54:51;;;;;;;6.43;1.10;;;2.30;88.80;;;;;;4997302;28;20053;-83
2024/01/15 07:57:17;;;;;;;4.93;1.27;;;2.20;88.80;;;;;;5013329;28;20405;-79
2024/01/15 07:59:43;;;;;;;4.18;1.40;;;2.10;88.70;;;;;;5012357;28;20104;-81
2024/01/15 08:02:09;;;;;;;2.67;0.68;;;2.10;89.10;;;;;;5026960;28;20052;-80
2024/01/15 08:04:38;;;;;;;6.90;0.90;;;2.00;89.20;;;;;;5005888;28;20068;-81
2024/01/15 08:07:05;;;;;;;2.00;0.80;;;1.90;89.30;;;;;;5023066;28;20038;-78
2024/01/15 08:09:31;;;;;;;2.28;0.85;;;1.90;89.60;;;;;;5007672;28;20042;-81
2024/01/15 08:11:57;;;;;;;5.53;1.13;;;1.90;89.60;;;;;;5007793;28;20048;-81
2024/01/15 08:14:22;;;;;;;3.90;0.93;;;1.80;89.90;;;;;;5006339;28;21033;-81
2024/01/15 08:16:50;;;;;;;5.75;1.13;;;1.70;90.00;;;;;;5025118;28;20132;-83
2024/01/15 08:19:16;;;;;;;5.55;1.00;;;1.70;90.40;;;;;;5024237;28;20245;-82
2024/01/15 08:21:42;;;;;;;7.28;1.10;;;1.70;90.50;;;;;;5008013;28;20098;-82
2024/01/15 08:24:11;;;;;;;5.30;1.38;;;1.80;90.70;;;;;;4990890;28;20041;-85
2024/01/15 08:26:37;;;;;;;6.68;1.55;;;1.90;90.90;;;;;;4990767;28;20509;-82
2024/01/15 08:29:03;;;;;;;7.03;1.63;;;1.90;90.90;;;;;;5024771;28;20171;-82
2024/01/15 08:31:28;;;;;;;6.45;1.35;;;1.90;91.10;;;;;;5007186;28;20513;-82
2024/01/15 08:33:55;;;;;;;5.85;1.20;;;1.90;91.10;;;;;;4990083;28;20077;-81
2024/01/15 08:36:21;;;;;;;11.48;1.85;;;1.90;91.10;;;;;;4986748;28;20080;-81
2024/01/15 08:38:47;;;;;;;10.25;2.10;;;1.90;91.40;;;;;;5029923;28;20041;-82
2024/01/15 08:41:13;;;;;;;11.68;3.58;;;1.90;91.40;;;;;;5014844;28;20041;-81
2024/01/15 08:43:39;;;;;;;12.88;3.33;;;2.00;91.50;;;;;;5014880;28;20037;-82
2024/01/15 08:46:05;;;;;;;11.75;2.40;;;2.00;91.40;;;;;;5015318;28;20033;-82
2024/01/15 08:48:31;;;;;;;6.53;1.77;;;2.10;91.10;;;;;;5014913;28;20033;-82
2024/01/15 08:50:56;;;;;;;5.70;1.30;;;2.10;90.90;;;;;;5014799;28;20099;-83
2024/01/15 08:53:22;;;;;;;7.00;1.52;;;2.30;90.50;;;;;;5014746;28;20041;-82
2024/01/15 08:55:49;;;;;;;5.97;1.38;;;2.30;90.10;;;;;;4999341;28;20041;-83
2024/01/15 08:58:15;;;;;;;9.82;1.70;;;2.50;89.60;;;;;;5018521;28;20124;-81
2024/01/15 09:00:40;;;;;;;8.85;1.50;;;2.60;89.30;;;;;;5035330;28;20413;-82
2024/01/15 09:03:08;;;;;;;8.65;2.50;;;2.60;88.90;;;;;;5034611;28;20132;-82
2024/01/15 09:05:34;;;;;;;18.27;3.05;;;2.60;89.10;;;;;;5034611;28;20072;-81
2024/01/15 09:07:59;;;;;;;9.13;2.22;;;2.70;88.90;;;;;;5017726;28;20033;-82
2024/01/15 09:10:25;;;;;;;10.20;2.40;;;2.80;88.70;;;;;;5018016;28;20037;-82
2024/01/15 09:12:51;;;;;;;12.55;3.25;;;2.80;88.80;;;;;;5017981;28;20033;-82
2024/01/15 09:15:17;;;;;;;13.63;2.33;;;2.90;88.60;;;;;;5017940;28;20035;-82
2024/01/15 09:17:42;;;;;;;9.10;2.05;;;2.90;88.60;;;;;;5034044;28;20033;-82
2024/01/15 09:20:09;;;;;;;14.40;3.28;;;2.90;88.50;;;;;;5033823;28;20030;-82
2024/01/15 09:22:38;;;;;;;7.57;1.42;;;2.90;88.60;;;;;;5017325;28;20116;-81
2024/01/15 09:25:04;;;;;;;4.75;1.42;;;3.00;88.40;;;;;;5017512;28;20454;-82
2024/01/15 09:27:30;;;;;;;9.98;1.70;;;3.00;88.30;;;;;;5017262;28;20033;-81
2024/01/15 09:29:56;;;;;;;8.57;1.00;;;3.00;87.90;;;;;;5017493;28;20037;-81
2024/01/15 09:32:22;;;;;;;6.88;1.13;;;3.00;87.60;;;;;;4985566;28;20040;-83
2024/01/15 09:34:48;;;;;;;9.95;1.65;;;3.10;87.50;;;;;;5034201;28;20041;-81
2024/01/15 09:37:14;;;;;;;8.88;1.35;;;3.10;87.40;;;;;;5017497;28;20045;-81
2024/01/15 09:39:40;;;;;;;4.45;0.82;;;3.00;87.60;;;;;;5017872;28;20147;-81
2024/01/15 09:42:06;;;;;;;14.00;1.35;;;3.10;87.60;;;;;;5017406;28;20052;-82
2024/01/15 09:44:37;;;;;;;13.88;2.65;;;3.00;88.00;;;;;;5034043;28;20042;-80
2024/01/15 09:47:05;;;;;;;7.93;2.10;;;3.10;88.20;;;;;;5017871;28;20506;-81
2024/01/15 09:49:31;;;;;;;5.68;1.10;;;3.00;88.40;;;;;;5001130;28;20494;-80
2024/01/15 09:51:58;;;;;;;3.08;1.05;;;3.00;88.80;;;;;;5017156;28;20069;-83
2024/01/15 09:54:24;;;;;;;3.03;1.10;;;3.00;89.20;;;;;;5017120;28;20041;-80
2024/01/15 09:56:50;;;;;;;5.72;1.77;;;2.90;89.40;;;;;;5033637;28;20045;-81
2024/01/15 09:59:18;;;;;;;3.13;0.90;;;2.90;89.70;;;;;;5017140;28;20410;-80
2024/01/15 10:01:44;;;;;;;5.65;1.98;;;2.90;90.00;;;;;;5033384;28;20132;-80
2024/01/15 10:04:12;;;;;;;7.80;1.33;;;2.90;90.30;;;;;;5016990;28;20132;-80
2024/01/15 10:06:39;;;;;;;14.05;1.73;;;2.90;90.50;;;;;;5033422;28;20053;-82
2024/01/15 10:09:07;;;;;;;8.85;1.23;;;2.90;90.70;;;;;;4999969;28;20100;-82
2024/01/15 10:11:33;;;;;;;3.35;0.60;;;3.00;90.70;;;;;;5017381;28;20059;-81
2024/01/15 10:13:59;;;;;;;2.53;0.63;;;3.10;90.40;;;;;;5016785;28;20564;-81
2024/01/15 10:16:26;;;;;;;1.35;0.70;;;3.00;90.20;;;;;;5016773;28;20128;-81
2024/01/15 10:18:51;;;;;;;0.82;0.50;;;2.90;90.50;;;;;;5016279;28;20052;-82
2024/01/15 10:21:17;;;;;;;2.10;0.60;;;2.80;90.60;;;;;;5016249;28;20037;-81
2024/01/15 10:23:44;;;;;;;1.67;0.30;;;2.60;90.50;;;;;;4998835;28;20050;-81
2024/01/15 10:26:11;;;;;;;3.38;0.40;;;2.40;90.60;;;;;;5032871;28;20077;-81
2024/01/15 10:28:37;;;;;;;3.80;0.85;;;2.30;90.80;;;;;;5016462;28;20044;-82
2024/01/15 10:31:04;;;;;;;3.72;0.60;;;2.30;91.00;;;;;;5032905;28;20124;-81
2024/01/15 10:33:30;;;;;;;4.07;0.80;;;2.30;91.10;;;;;;5016319;28;20056;-81
2024/01/15 10:36:00;;;;;;;6.45;1.05;;;2.30;91.20;;;;;;5016715;28;20033;-82
2024/01/15 10:38:26;;;;;;;5.13;1.33;;;2.30;91.30;;;;;;5000016;28;20038;-81
2024/01/15 10:40:56;;;;;;;4.50;0.95;;;2.40;91.50;;;;;;5016320;28;20038;-82
2024/01/15 10:43:23;;;;;;;8.52;1.67;;;2.50;91.40;;;;;;5032549;28;20048;-82
2024/01/15 10:45:50;;;;;;;7.03;1.65;;;2.60;91.30;;;;;;5032343;28;20053;-81
2024/01/15 10:48:19;;;;;;;12.85;2.40;;;2.60;91.20;;;;;;4999943;28;20041;-80
2024/01/15 10:50:46;;;;;;;11.88;1.83;;;2.70;91.30;;;;;;5016257;28;20124;-82
2024/01/15 10:53:16;;;;;;;9.48;1.42;;;2.70;91.30;;;;;;5032645;28;20389;-82
2024/01/15 10:55:43;;;;;;;6.80;1.70;;;2.80;91.20;;;;;;4999602;28;20041;-81
2024/01/15 10:58:09;;;;;;;11.75;1.85;;;2.80;90.90;;;;;;5032341;28;20124;-81
2024/01/15 11:00:37;;;;;;;7.50;1.10;;;2.90;90.30;;;;;;5015870;28;20061;-81
2024/01/15 11:03:05;;;;;;;5.43;1.30;;;3.00;89.90;;;;;;5015740;28;20037;-81
2024/01/15 11:05:57;;;;;;;5.05;1.05;;;3.10;88.80;;;;;;5016091;28;20077;-81
2024/01/15 11:08:25;;;;;;;9.35;1.15;;;3.10;88.20;;;;;;5028386;28;20406;-82
2024/01/15 11:10:52;;;;;;;6.85;1.13;;;3.10;88.30;;;;;;5016023;28;20041;-82
2024/01/15 11:13:27;;;;;;;7.15;1.80;;;3.10;88.40;;;;;;5015872;28;20651;-81
2024/01/15 11:16:10;;;;;;;8.02;1.33;;;3.10;88.30;;;;;;5015674;28;20133;-82
2024/01/15 11:19:00;;;;;;;9.95;2.20;;;3.20;87.80;;;;;;5015910;28;20386;-83
2024/01/15 11:21:29;;;;;;;14.05;2.80;;;3.20;87.60;;;;;;5031574;28;20083;-82
2024/01/15 11:23:58;;;;;;;7.68;1.48;;;3.20;87.70;;;;;;5031806;28;20096;-81
2024/01/15 11:26:31;;;;;;;8.82;1.50;;;3.20;88.10;;;;;;5031958;28;20041;-82
2024/01/15 11:28:59;;;;;;;5.90;1.13;;;3.00;88.20;;;;;;5032199;28;20037;-82
2024/01/15 11:31:51;;;;;;;11.10;1.50;;;2.80;88.50;;;;;;5015643;28;20080;-81
2024/01/15 11:34:17;;;;;;;5.70;0.95;;;2.60;88.80;;;;;;5007472;28;20144;-82
2024/01/15 11:37:03;;;;;;;4.55;1.17;;;2.40;89.50;;;;;;5031939;28;20494;-82
2024/01/15 11:39:30;;;;;;;5.65;0.82;;;2.20;90.10;;;;;;5015471;28;20120;-81
2024/01/15 11:42:01;;;;;;;3.65;1.77;;;2.10;90.20;;;;;;5031696;28;20045;-80
2024/01/15 11:44:27;;;;;;;5.22;1.45;;;2.00;90.50;;;;;;5031856;28;20045;-81
2024/01/15 11:47:06;;;;;;;6.68;1.20;;;1.90;90.90;;;;;;5015288;28;20037;-81
2024/01/15 11:49:35;;;;;;;5.22;1.58;;;1.90;91.30;;;;;;5015477;28;20040;-82
2024/01/15 11:52:02;;;;;;;8.80;1.55;;;2.00;91.50;;;;;;5015335;28;20041;-81
2024/01/15 11:54:36;;;;;;;5.50;1.10;;;1.90;91.50;;;;;;5031615;28;20087;-81
2024/01/15 11:57:09;;;;;;;3.97;1.47;;;1.90;91.70;;;;;;5015196;28;20331;-81
2024/01/15 11:59:34;;;;;;;9.07;1.95;;;1.90;91.90;;;;;;5015011;28;20057;-81
2024/01/15 12:02:01;;;;;;;5.55;1.88;;;2.00;92.00;;;;;;4998649;28;20050;-81
2024/01/15 12:04:27;;;;;;;5.28;1.25;;;2.00;92.10;;;;;;5014963;28;20545;-81
2024/01/15 12:06:53;;;;;;;11.07;2.03;;;2.10;92.20;;;;;;5015331;28;20135;-81
2024/01/15 12:09:22;;;;;;;12.02;3.05;;;2.30;92.30;;;;;;5015006;28;20500;-81
2024/01/15 12:11:55;;;;;;;10.23;2.90;;;2.50;92.30;;;;;;5030793;28;20038;-82
2024/01/15 12:14:22;;;;;;;7.07;2.42;;;2.70;92.30;;;;;;5014811;28;20052;-81
2024/01/15 12:16:47;;;;;;;12.15;4.18;;;2.80;92.30;;;;;;5031262;28;20056;-81
2024/01/15 12:19:15;;;;;;;19.38;7.53;;;2.90;92.20;;;;;;5031282;28;20042;-81
2024/01/15 12:21:40;;;;;;;13.88;5.65;;;2.90;92.00;;;;;;4982432;28;20519;-81
2024/01/15 12:24:10;;;;;;;15.13;3.15;;;3.10;92.00;;;;;;5014903;28;20042;-80
2024/01/15 12:26:35;;;;;;;5.88;1.60;;;3.30;91.80;;;;;;5015160;28;20038;-80
2024/01/15 12:29:02;;;;;;;9.02;1.48;;;3.60;91.50;;;;;;5031141;28;20111;-81
2024/01/15 12:31:29;;;;;;;6.50;1.23;;;3.80;91.30;;;;;;5032832;28;20049;-80
2024/01/15 12:33:56;;;;;;;8.13;1.75;;;3.70;90.90;;;;;;5002591;28;20103;-80
2024/01/15 12:36:22;;;;;;;8.50;1.63;;;3.60;90.50;;;;;;5018566;28;20041;-81
2024/01/15 12:38:47;;;;;;;7.15;1.60;;;3.70;90.30;;;;;;5035260;28;20045;-82
2024/01/15 12:41:13;;;;;;;5.75;1.42;;;3.60;90.10;;;;;;5018515;28;20532;-81
2024/01/15 12:43:40;;;;;;;7.60;1.90;;;3.60;89.90;;;;;;5018325;28;20060;-81
2024/01/15 12:46:06;;;;;;;7.03;1.60;;;3.60;89.70;;;;;;5018574;28;20037;-81
2024/01/15 12:48:31;;;;;;;6.60;1.75;;;3.50;89.50;;;;;;5018597;28;20041;-81
2024/01/15 12:50:57;;;;;;;14.93;2.25;;;3.40;89.50;;;;;;5001952;28;20049;-81